sensor_id;sensor_type;location;lat;lon;timestamp;temperature;humidity
75457;SHT31;64036;48.266;14.192;2023-02-28T00:00:35;0.61;64.29
75457;SHT31;64036;48.266;14.192;2023-02-28T00:03:02;0.61;64.21
75457;SHT31;64036;48.266;14.192;2023-02-28T00:05:28;0.60;63.99
75457;SHT31;64036;48.266;14.192;2023-02-28T00:07:54;0.60;63.86
75457;SHT31;64036;48.266;14.192;2023-02-28T00:10:21;0.57;63.78
75457;SHT31;64036;48.266;14.192;2023-02-28T00:12:51;0.57;63.77
75457;SHT31;64036;48.266;14.192;2023-02-28T00:15:22;0.53;63.95
75457;SHT31;64036;48.266;14.192;2023-02-28T00:17:48;0.51;63.95
75457;SHT31;64036;48.266;14.192;2023-02-28T00:20:15;0.46;64.03
75457;SHT31;64036;48.266;14.192;2023-02-28T00:22:42;0.44;63.99
75457;SHT31;64036;48.266;14.192;2023-02-28T00:25:11;0.41;63.94
75457;SHT31;64036;48.266;14.192;2023-02-28T00:27:40;0.38;64.08
75457;SHT31;64036;48.266;14.192;2023-02-28T00:30:07;0.35;64.27
75457;SHT31;64036;48.266;14.192;2023-02-28T00:32:37;0.33;64.36
75457;SHT31;64036;48.266;14.192;2023-02-28T00:35:04;0.30;64.56
75457;SHT31;64036;48.266;14.192;2023-02-28T00:37:30;0.28;64.53
75457;SHT31;64036;48.266;14.192;2023-02-28T00:39:56;0.25;64.78
75457;SHT31;64036;48.266;14.192;2023-02-28T00:42:23;0.24;64.97
75457;SHT31;64036;48.266;14.192;2023-02-28T00:44:49;0.20;65.07
75457;SHT31;64036;48.266;14.192;2023-02-28T00:47:15;0.18;65.02
75457;SHT31;64036;48.266;14.192;2023-02-28T00:49:41;0.18;64.96
75457;SHT31;64036;48.266;14.192;2023-02-28T00:52:07;0.17;65.28
75457;SHT31;64036;48.266;14.192;2023-02-28T00:54:33;0.14;65.30
75457;SHT31;64036;48.266;14.192;2023-02-28T00:56:58;0.14;65.16
75457;SHT31;64036;48.266;14.192;2023-02-28T00:59:25;0.13;65.38
75457;SHT31;64036;48.266;14.192;2023-02-28T01:01:50;0.10;65.38
75457;SHT31;64036;48.266;14.192;2023-02-28T01:04:16;0.09;65.36
75457;SHT31;64036;48.266;14.192;2023-02-28T01:06:42;0.07;65.47
75457;SHT31;64036;48.266;14.192;2023-02-28T01:09:08;0.06;65.50
75457;SHT31;64036;48.266;14.192;2023-02-28T01:11:35;0.05;65.42
75457;SHT31;64036;48.266;14.192;2023-02-28T01:14:01;0.05;65.46
75457;SHT31;64036;48.266;14.192;2023-02-28T01:16:29;0.05;65.42
75457;SHT31;64036;48.266;14.192;2023-02-28T01:18:55;0.03;65.26
75457;SHT31;64036;48.266;14.192;2023-02-28T01:21:21;0.03;65.36
75457;SHT31;64036;48.266;14.192;2023-02-28T01:23:47;0.02;65.28
75457;SHT31;64036;48.266;14.192;2023-02-28T01:26:16;0.04;65.40
75457;SHT31;64036;48.266;14.192;2023-02-28T01:28:45;0.02;65.32
75457;SHT31;64036;48.266;14.192;2023-02-28T01:31:12;0.00;65.39
75457;SHT31;64036;48.266;14.192;2023-02-28T01:33:38;-0.01;65.31
75457;SHT31;64036;48.266;14.192;2023-02-28T01:36:06;-0.01;65.07
75457;SHT31;64036;48.266;14.192;2023-02-28T01:38:36;0.00;65.28
75457;SHT31;64036;48.266;14.192;2023-02-28T01:41:02;-0.01;65.29
75457;SHT31;64036;48.266;14.192;2023-02-28T01:47:21;-0.04;65.38
75457;SHT31;64036;48.266;14.192;2023-02-28T01:49:50;-0.05;65.45
75457;SHT31;64036;48.266;14.192;2023-02-28T01:52:17;-0.08;65.42
75457;SHT31;64036;48.266;14.192;2023-02-28T01:54:51;-0.09;65.37
75457;SHT31;64036;48.266;14.192;2023-02-28T01:57:21;-0.09;65.32
75457;SHT31;64036;48.266;14.192;2023-02-28T01:59:57;-0.10;65.45
75457;SHT31;64036;48.266;14.192;2023-02-28T02:02:34;-0.12;65.49
75457;SHT31;64036;48.266;14.192;2023-02-28T02:05:08;-0.14;65.53
75457;SHT31;64036;48.266;14.192;2023-02-28T02:07:45;-0.15;65.70
75457;SHT31;64036;48.266;14.192;2023-02-28T02:13:00;-0.20;65.60
75457;SHT31;64036;48.266;14.192;2023-02-28T02:18:54;-0.21;65.80
75457;SHT31;64036;48.266;14.192;2023-02-28T02:42:31;-0.36;65.59
75457;SHT31;64036;48.266;14.192;2023-02-28T02:48:16;-0.37;65.51
75457;SHT31;64036;48.266;14.192;2023-02-28T02:50:47;-0.38;65.51
75457;SHT31;64036;48.266;14.192;2023-02-28T02:53:18;-0.39;65.38
75457;SHT31;64036;48.266;14.192;2023-02-28T02:55:53;-0.39;65.52
75457;SHT31;64036;48.266;14.192;2023-02-28T02:58:22;-0.41;65.52
75457;SHT31;64036;48.266;14.192;2023-02-28T03:00:55;-0.41;65.47
75457;SHT31;64036;48.266;14.192;2023-02-28T03:03:25;-0.41;65.14
75457;SHT31;64036;48.266;14.192;2023-02-28T03:05:56;-0.39;65.16
75457;SHT31;64036;48.266;14.192;2023-02-28T03:08:25;-0.40;65.34
75457;SHT31;64036;48.266;14.192;2023-02-28T03:10:55;-0.42;65.25
75457;SHT31;64036;48.266;14.192;2023-02-28T03:16:17;-0.44;65.27
75457;SHT31;64036;48.266;14.192;2023-02-28T03:19:06;-0.45;65.14
75457;SHT31;64036;48.266;14.192;2023-02-28T03:28:03;-0.43;64.55
75457;SHT31;64036;48.266;14.192;2023-02-28T03:30:36;-0.42;64.69
75457;SHT31;64036;48.266;14.192;2023-02-28T03:33:24;-0.44;64.76
75457;SHT31;64036;48.266;14.192;2023-02-28T03:36:04;-0.45;64.64
75457;SHT31;64036;48.266;14.192;2023-02-28T03:38:41;-0.46;64.52
75457;SHT31;64036;48.266;14.192;2023-02-28T03:43:54;-0.48;64.37
75457;SHT31;64036;48.266;14.192;2023-02-28T03:46:54;-0.48;64.29
75457;SHT31;64036;48.266;14.192;2023-02-28T03:55:48;-0.50;64.26
75457;SHT31;64036;48.266;14.192;2023-02-28T03:58:26;-0.52;64.31
75457;SHT31;64036;48.266;14.192;2023-02-28T04:01:05;-0.53;64.39
75457;SHT31;64036;48.266;14.192;2023-02-28T04:03:37;-0.54;64.39
75457;SHT31;64036;48.266;14.192;2023-02-28T04:06:04;-0.56;64.28
75457;SHT31;64036;48.266;14.192;2023-02-28T04:08:33;-0.58;64.58
75457;SHT31;64036;48.266;14.192;2023-02-28T04:11:04;-0.60;64.46
75457;SHT31;64036;48.266;14.192;2023-02-28T04:13:39;-0.61;64.34
75457;SHT31;64036;48.266;14.192;2023-02-28T04:16:07;-0.60;64.26
75457;SHT31;64036;48.266;14.192;2023-02-28T04:18:37;-0.62;64.28
75457;SHT31;64036;48.266;14.192;2023-02-28T04:21:08;-0.62;64.17
75457;SHT31;64036;48.266;14.192;2023-02-28T04:23:35;-0.62;64.15
75457;SHT31;64036;48.266;14.192;2023-02-28T04:26:04;-0.59;63.96
75457;SHT31;64036;48.266;14.192;2023-02-28T04:28:31;-0.59;63.74
75457;SHT31;64036;48.266;14.192;2023-02-28T04:30:58;-0.56;63.93
75457;SHT31;64036;48.266;14.192;2023-02-28T04:33:28;-0.56;63.95
75457;SHT31;64036;48.266;14.192;2023-02-28T04:36:01;-0.59;64.06
75457;SHT31;64036;48.266;14.192;2023-02-28T04:38:32;-0.61;64.08
75457;SHT31;64036;48.266;14.192;2023-02-28T04:41:00;-0.62;63.85
75457;SHT31;64036;48.266;14.192;2023-02-28T04:43:29;-0.61;63.82
75457;SHT31;64036;48.266;14.192;2023-02-28T04:45:57;-0.61;63.80
75457;SHT31;64036;48.266;14.192;2023-02-28T04:48:27;-0.61;63.88
75457;SHT31;64036;48.266;14.192;2023-02-28T04:50:55;-0.62;63.88
75457;SHT31;64036;48.266;14.192;2023-02-28T04:53:33;-0.63;63.86
75457;SHT31;64036;48.266;14.192;2023-02-28T04:56:00;-0.64;63.87
75457;SHT31;64036;48.266;14.192;2023-02-28T04:58:26;-0.64;63.63
75457;SHT31;64036;48.266;14.192;2023-02-28T05:00:53;-0.64;63.50
75457;SHT31;64036;48.266;14.192;2023-02-28T05:03:26;-0.63;63.65
75457;SHT31;64036;48.266;14.192;2023-02-28T05:05:52;-0.63;63.61
75457;SHT31;64036;48.266;14.192;2023-02-28T05:08:17;-0.63;63.83
75457;SHT31;64036;48.266;14.192;2023-02-28T05:10:43;-0.65;63.69
75457;SHT31;64036;48.266;14.192;2023-02-28T05:13:11;-0.67;63.86
75457;SHT31;64036;48.266;14.192;2023-02-28T05:15:37;-0.69;63.99
75457;SHT31;64036;48.266;14.192;2023-02-28T05:18:04;-0.71;64.00
75457;SHT31;64036;48.266;14.192;2023-02-28T05:20:30;-0.73;63.91
75457;SHT31;64036;48.266;14.192;2023-02-28T05:22:56;-0.74;63.86
75457;SHT31;64036;48.266;14.192;2023-02-28T05:25:24;-0.73;63.62
75457;SHT31;64036;48.266;14.192;2023-02-28T05:27:50;-0.72;63.54
75457;SHT31;64036;48.266;14.192;2023-02-28T05:30:16;-0.72;63.62
75457;SHT31;64036;48.266;14.192;2023-02-28T05:32:42;-0.72;63.31
75457;SHT31;64036;48.266;14.192;2023-02-28T05:35:07;-0.70;63.60
75457;SHT31;64036;48.266;14.192;2023-02-28T05:37:37;-0.71;63.71
75457;SHT31;64036;48.266;14.192;2023-02-28T05:40:04;-0.72;63.78
75457;SHT31;64036;48.266;14.192;2023-02-28T05:42:35;-0.74;63.71
75457;SHT31;64036;48.266;14.192;2023-02-28T05:45:02;-0.75;63.98
75457;SHT31;64036;48.266;14.192;2023-02-28T05:47:29;-0.76;64.04
75457;SHT31;64036;48.266;14.192;2023-02-28T05:49:55;-0.78;64.02
75457;SHT31;64036;48.266;14.192;2023-02-28T05:52:21;-0.79;64.01
75457;SHT31;64036;48.266;14.192;2023-02-28T05:54:47;-0.78;63.95
75457;SHT31;64036;48.266;14.192;2023-02-28T05:57:12;-0.75;63.91
75457;SHT31;64036;48.266;14.192;2023-02-28T05:59:38;-0.74;64.02
75457;SHT31;64036;48.266;14.192;2023-02-28T06:02:05;-0.73;63.90
75457;SHT31;64036;48.266;14.192;2023-02-28T06:04:36;-0.70;63.91
75457;SHT31;64036;48.266;14.192;2023-02-28T06:07:02;-0.68;63.99
75457;SHT31;64036;48.266;14.192;2023-02-28T06:09:28;-0.67;63.87
75457;SHT31;64036;48.266;14.192;2023-02-28T06:11:54;-0.63;63.27
75457;SHT31;64036;48.266;14.192;2023-02-28T06:14:23;-0.54;63.02
75457;SHT31;64036;48.266;14.192;2023-02-28T06:16:48;-0.42;62.86
75457;SHT31;64036;48.266;14.192;2023-02-28T06:19:14;-0.16;62.44
75457;SHT31;64036;48.266;14.192;2023-02-28T06:21:41;0.38;61.42
75457;SHT31;64036;48.266;14.192;2023-02-28T06:24:07;1.03;60.40
75457;SHT31;64036;48.266;14.192;2023-02-28T06:26:33;1.67;59.06
75457;SHT31;64036;48.266;14.192;2023-02-28T06:28:59;2.21;57.52
75457;SHT31;64036;48.266;14.192;2023-02-28T06:31:25;2.70;56.23
75457;SHT31;64036;48.266;14.192;2023-02-28T06:33:53;3.22;54.94
75457;SHT31;64036;48.266;14.192;2023-02-28T06:36:19;3.70;53.09
75457;SHT31;64036;48.266;14.192;2023-02-28T06:38:45;4.15;52.54
75457;SHT31;64036;48.266;14.192;2023-02-28T06:41:11;4.65;51.59
75457;SHT31;64036;48.266;14.192;2023-02-28T06:43:40;5.19;50.63
75457;SHT31;64036;48.266;14.192;2023-02-28T06:46:08;5.71;49.90
75457;SHT31;64036;48.266;14.192;2023-02-28T06:48:36;6.25;48.87
75457;SHT31;64036;48.266;14.192;2023-02-28T06:51:12;6.66;46.35
75457;SHT31;64036;48.266;14.192;2023-02-28T06:53:42;7.06;45.66
75457;SHT31;64036;48.266;14.192;2023-02-28T06:56:09;7.51;44.69
75457;SHT31;64036;48.266;14.192;2023-02-28T06:58:38;7.93;43.42
75457;SHT31;64036;48.266;14.192;2023-02-28T07:01:05;8.46;42.66
75457;SHT31;64036;48.266;14.192;2023-02-28T07:03:32;8.88;41.94
75457;SHT31;64036;48.266;14.192;2023-02-28T07:06:01;9.21;40.62
75457;SHT31;64036;48.266;14.192;2023-02-28T07:08:29;9.70;40.16
75457;SHT31;64036;48.266;14.192;2023-02-28T07:10:55;10.21;40.29
75457;SHT31;64036;48.266;14.192;2023-02-28T07:13:21;10.82;38.83
75457;SHT31;64036;48.266;14.192;2023-02-28T07:15:55;11.21;37.20
75457;SHT31;64036;48.266;14.192;2023-02-28T07:18:23;11.48;36.17
75457;SHT31;64036;48.266;14.192;2023-02-28T07:20:48;11.87;35.97
75457;SHT31;64036;48.266;14.192;2023-02-28T07:23:15;12.25;35.58
75457;SHT31;64036;48.266;14.192;2023-02-28T07:25:40;12.70;34.80
75457;SHT31;64036;48.266;14.192;2023-02-28T07:28:06;12.79;33.51
75457;SHT31;64036;48.266;14.192;2023-02-28T07:30:32;12.81;32.77
75457;SHT31;64036;48.266;14.192;2023-02-28T07:32:57;12.74;32.71
75457;SHT31;64036;48.266;14.192;2023-02-28T07:35:23;12.94;32.47
75457;SHT31;64036;48.266;14.192;2023-02-28T07:37:48;12.99;31.66
75457;SHT31;64036;48.266;14.192;2023-02-28T07:40:14;13.08;32.58
75457;SHT31;64036;48.266;14.192;2023-02-28T07:42:43;13.49;32.77
75457;SHT31;64036;48.266;14.192;2023-02-28T07:45:10;13.84;31.70
75457;SHT31;64036;48.266;14.192;2023-02-28T07:47:39;14.09;30.82
75457;SHT31;64036;48.266;14.192;2023-02-28T07:50:08;13.94;30.41
75457;SHT31;64036;48.266;14.192;2023-02-28T07:52:37;13.96;30.46
75457;SHT31;64036;48.266;14.192;2023-02-28T07:55:04;14.01;30.37
75457;SHT31;64036;48.266;14.192;2023-02-28T07:57:31;14.11;29.63
75457;SHT31;64036;48.266;14.192;2023-02-28T07:59:57;14.10;30.31
75457;SHT31;64036;48.266;14.192;2023-02-28T08:02:22;14.41;30.43
75457;SHT31;64036;48.266;14.192;2023-02-28T08:04:48;14.72;29.88
75457;SHT31;64036;48.266;14.192;2023-02-28T08:07:14;14.86;29.69
75457;SHT31;64036;48.266;14.192;2023-02-28T08:09:42;14.93;29.60
75457;SHT31;64036;48.266;14.192;2023-02-28T08:12:08;15.02;29.30
75457;SHT31;64036;48.266;14.192;2023-02-28T08:14:35;15.14;28.70
75457;SHT31;64036;48.266;14.192;2023-02-28T08:17:01;15.01;28.83
75457;SHT31;64036;48.266;14.192;2023-02-28T08:19:27;15.03;28.50
75457;SHT31;64036;48.266;14.192;2023-02-28T08:21:53;15.08;28.94
75457;SHT31;64036;48.266;14.192;2023-02-28T08:24:19;15.10;28.58
75457;SHT31;64036;48.266;14.192;2023-02-28T08:26:45;14.95;28.78
75457;SHT31;64036;48.266;14.192;2023-02-28T08:29:10;14.77;29.47
75457;SHT31;64036;48.266;14.192;2023-02-28T08:31:36;14.80;29.70
75457;SHT31;64036;48.266;14.192;2023-02-28T08:34:06;14.94;29.14
75457;SHT31;64036;48.266;14.192;2023-02-28T08:36:36;15.05;28.80
75457;SHT31;64036;48.266;14.192;2023-02-28T08:39:03;14.45;28.61
75457;SHT31;64036;48.266;14.192;2023-02-28T08:41:30;14.11;29.65
75457;SHT31;64036;48.266;14.192;2023-02-28T08:43:55;14.00;29.63
75457;SHT31;64036;48.266;14.192;2023-02-28T08:46:23;13.80;30.23
75457;SHT31;64036;48.266;14.192;2023-02-28T08:48:53;13.81;30.09
75457;SHT31;64036;48.266;14.192;2023-02-28T08:51:20;13.85;30.46
75457;SHT31;64036;48.266;14.192;2023-02-28T08:53:55;13.90;30.74
75457;SHT31;64036;48.266;14.192;2023-02-28T08:56:25;14.49;30.08
75457;SHT31;64036;48.266;14.192;2023-02-28T08:58:53;14.31;29.53
75457;SHT31;64036;48.266;14.192;2023-02-28T09:01:22;14.14;29.64
75457;SHT31;64036;48.266;14.192;2023-02-28T09:03:52;14.08;30.01
75457;SHT31;64036;48.266;14.192;2023-02-28T09:06:19;13.99;30.01
75457;SHT31;64036;48.266;14.192;2023-02-28T09:08:46;14.02;30.19
75457;SHT31;64036;48.266;14.192;2023-02-28T09:11:12;14.00;29.89
75457;SHT31;64036;48.266;14.192;2023-02-28T09:13:38;13.83;30.06
75457;SHT31;64036;48.266;14.192;2023-02-28T09:16:05;13.64;29.70
75457;SHT31;64036;48.266;14.192;2023-02-28T09:18:35;13.45;30.73
75457;SHT31;64036;48.266;14.192;2023-02-28T09:21:03;13.53;30.07
75457;SHT31;64036;48.266;14.192;2023-02-28T09:23:33;13.23;30.66
75457;SHT31;64036;48.266;14.192;2023-02-28T09:26:00;13.39;31.31
75457;SHT31;64036;48.266;14.192;2023-02-28T09:28:25;13.53;31.52
75457;SHT31;64036;48.266;14.192;2023-02-28T09:30:52;13.44;31.88
75457;SHT31;64036;48.266;14.192;2023-02-28T09:33:19;13.51;31.73
75457;SHT31;64036;48.266;14.192;2023-02-28T09:35:47;13.22;31.81
75457;SHT31;64036;48.266;14.192;2023-02-28T09:38:14;13.01;32.08
75457;SHT31;64036;48.266;14.192;2023-02-28T09:40:49;12.92;33.03
75457;SHT31;64036;48.266;14.192;2023-02-28T09:43:17;12.92;31.87
75457;SHT31;64036;48.266;14.192;2023-02-28T09:45:48;13.11;32.29
75457;SHT31;64036;48.266;14.192;2023-02-28T09:48:31;13.13;32.10
75457;SHT31;64036;48.266;14.192;2023-02-28T09:53:57;13.20;32.07
75457;SHT31;64036;48.266;14.192;2023-02-28T09:56:30;13.23;32.12
75457;SHT31;64036;48.266;14.192;2023-02-28T10:04:46;12.83;33.42
75457;SHT31;64036;48.266;14.192;2023-02-28T10:10:39;12.69;33.85
75457;SHT31;64036;48.266;14.192;2023-02-28T10:13:32;12.22;34.49
75457;SHT31;64036;48.266;14.192;2023-02-28T10:15:55;11.43;35.95
75457;SHT31;64036;48.266;14.192;2023-02-28T10:18:51;11.36;36.18
75457;SHT31;64036;48.266;14.192;2023-02-28T10:22:26;10.69;37.36
75457;SHT31;64036;48.266;14.192;2023-02-28T10:24:49;10.37;36.80
75457;SHT31;64036;48.266;14.192;2023-02-28T10:27:22;10.15;38.57
75457;SHT31;64036;48.266;14.192;2023-02-28T10:29:55;9.96;38.73
75457;SHT31;64036;48.266;14.192;2023-02-28T10:32:27;9.67;41.61
75457;SHT31;64036;48.266;14.192;2023-02-28T10:37:42;9.54;40.97
75457;SHT31;64036;48.266;14.192;2023-02-28T10:42:55;9.64;40.33
75457;SHT31;64036;48.266;14.192;2023-02-28T10:45:26;9.82;38.72
75457;SHT31;64036;48.266;14.192;2023-02-28T10:47:58;9.79;39.13
75457;SHT31;64036;48.266;14.192;2023-02-28T10:50:52;9.69;38.81
75457;SHT31;64036;48.266;14.192;2023-02-28T10:56:04;9.54;40.36
75457;SHT31;64036;48.266;14.192;2023-02-28T11:01:37;9.42;40.70
75457;SHT31;64036;48.266;14.192;2023-02-28T11:04:18;9.47;41.06
75457;SHT31;64036;48.266;14.192;2023-02-28T11:06:44;9.37;40.87
75457;SHT31;64036;48.266;14.192;2023-02-28T11:09:25;9.29;43.41
75457;SHT31;64036;48.266;14.192;2023-02-28T11:11:56;9.40;41.25
75457;SHT31;64036;48.266;14.192;2023-02-28T11:14:24;9.49;41.58
75457;SHT31;64036;48.266;14.192;2023-02-28T11:16:54;9.63;40.26
75457;SHT31;64036;48.266;14.192;2023-02-28T11:19:35;9.70;40.99
75457;SHT31;64036;48.266;14.192;2023-02-28T11:22:09;9.42;41.96
75457;SHT31;64036;48.266;14.192;2023-02-28T11:24:43;9.05;43.28
75457;SHT31;64036;48.266;14.192;2023-02-28T11:29:56;8.84;43.73
75457;SHT31;64036;48.266;14.192;2023-02-28T11:32:24;8.73;44.26
75457;SHT31;64036;48.266;14.192;2023-02-28T11:37:30;8.79;43.31
75457;SHT31;64036;48.266;14.192;2023-02-28T11:39:57;9.00;44.11
75457;SHT31;64036;48.266;14.192;2023-02-28T11:53:14;9.01;43.21
75457;SHT31;64036;48.266;14.192;2023-02-28T11:56:16;8.98;43.64
75457;SHT31;64036;48.266;14.192;2023-02-28T12:05:34;8.84;45.48
75457;SHT31;64036;48.266;14.192;2023-02-28T12:14:19;9.27;42.34
75457;SHT31;64036;48.266;14.192;2023-02-28T12:28:08;8.74;44.50
75457;SHT31;64036;48.266;14.192;2023-02-28T12:30:37;8.58;45.21
75457;SHT31;64036;48.266;14.192;2023-02-28T12:33:32;8.59;44.79
75457;SHT31;64036;48.266;14.192;2023-02-28T12:36:05;8.70;44.68
75457;SHT31;64036;48.266;14.192;2023-02-28T12:38:44;8.65;46.08
75457;SHT31;64036;48.266;14.192;2023-02-28T12:41:16;8.30;47.58
75457;SHT31;64036;48.266;14.192;2023-02-28T12:43:49;8.16;47.54
75457;SHT31;64036;48.266;14.192;2023-02-28T12:46:24;8.14;47.51
75457;SHT31;64036;48.266;14.192;2023-02-28T12:48:58;8.10;47.28
75457;SHT31;64036;48.266;14.192;2023-02-28T12:51:33;8.02;48.27
75457;SHT31;64036;48.266;14.192;2023-02-28T12:54:10;7.91;48.78
75457;SHT31;64036;48.266;14.192;2023-02-28T13:05:26;8.29;48.17
75457;SHT31;64036;48.266;14.192;2023-02-28T13:08:46;8.41;46.58
75457;SHT31;64036;48.266;14.192;2023-02-28T13:11:46;8.34;46.98
75457;SHT31;64036;48.266;14.192;2023-02-28T13:24:51;8.49;45.01
75457;SHT31;64036;48.266;14.192;2023-02-28T13:27:32;8.43;47.99
75457;SHT31;64036;48.266;14.192;2023-02-28T13:31:03;8.33;48.00
75457;SHT31;64036;48.266;14.192;2023-02-28T13:38:44;8.29;46.11
75457;SHT31;64036;48.266;14.192;2023-02-28T13:46:34;8.22;48.45
75457;SHT31;64036;48.266;14.192;2023-02-28T13:51:52;8.05;48.68
75457;SHT31;64036;48.266;14.192;2023-02-28T13:57:44;7.88;48.83
75457;SHT31;64036;48.266;14.192;2023-02-28T14:06:30;7.82;48.71
75457;SHT31;64036;48.266;14.192;2023-02-28T14:39:43;7.99;49.32
75457;SHT31;64036;48.266;14.192;2023-02-28T14:43:28;7.82;49.52
75457;SHT31;64036;48.266;14.192;2023-02-28T14:49:47;7.91;49.30
75457;SHT31;64036;48.266;14.192;2023-02-28T14:52:23;7.92;49.34
75457;SHT31;64036;48.266;14.192;2023-02-28T14:55:09;7.94;49.26
75457;SHT31;64036;48.266;14.192;2023-02-28T14:57:52;7.89;48.93
75457;SHT31;64036;48.266;14.192;2023-02-28T15:00:29;7.85;49.02
75457;SHT31;64036;48.266;14.192;2023-02-28T15:06:11;7.66;49.68
75457;SHT31;64036;48.266;14.192;2023-02-28T15:11:48;7.60;50.05
75457;SHT31;64036;48.266;14.192;2023-02-28T15:14:21;7.55;50.82
75457;SHT31;64036;48.266;14.192;2023-02-28T15:16:55;7.45;50.53
75457;SHT31;64036;48.266;14.192;2023-02-28T15:19:29;7.28;50.64
75457;SHT31;64036;48.266;14.192;2023-02-28T15:22:04;7.12;50.87
75457;SHT31;64036;48.266;14.192;2023-02-28T15:24:42;6.98;51.36
75457;SHT31;64036;48.266;14.192;2023-02-28T15:27:23;6.87;51.69
75457;SHT31;64036;48.266;14.192;2023-02-28T15:29:57;6.76;51.90
75457;SHT31;64036;48.266;14.192;2023-02-28T15:32:28;6.65;52.13
75457;SHT31;64036;48.266;14.192;2023-02-28T15:34:55;6.52;52.36
75457;SHT31;64036;48.266;14.192;2023-02-28T15:43:16;6.17;53.04
75457;SHT31;64036;48.266;14.192;2023-02-28T15:45:48;6.08;52.91
75457;SHT31;64036;48.266;14.192;2023-02-28T15:48:28;5.97;52.88
75457;SHT31;64036;48.266;14.192;2023-02-28T15:51:24;5.89;53.40
75457;SHT31;64036;48.266;14.192;2023-02-28T15:56:28;5.76;53.41
75457;SHT31;64036;48.266;14.192;2023-02-28T15:58:59;5.70;53.21
75457;SHT31;64036;48.266;14.192;2023-02-28T16:01:28;5.66;54.04
75457;SHT31;64036;48.266;14.192;2023-02-28T16:04:03;5.62;54.20
75457;SHT31;64036;48.266;14.192;2023-02-28T16:06:59;5.58;54.22
75457;SHT31;64036;48.266;14.192;2023-02-28T16:09:33;5.54;54.36
75457;SHT31;64036;48.266;14.192;2023-02-28T16:12:08;5.47;54.10
75457;SHT31;64036;48.266;14.192;2023-02-28T16:14:52;5.37;54.28
75457;SHT31;64036;48.266;14.192;2023-02-28T16:17:26;5.33;55.31
75457;SHT31;64036;48.266;14.192;2023-02-28T16:20:13;5.29;55.90
75457;SHT31;64036;48.266;14.192;2023-02-28T16:22:50;5.24;55.85
75457;SHT31;64036;48.266;14.192;2023-02-28T16:25:56;5.18;55.74
75457;SHT31;64036;48.266;14.192;2023-02-28T16:28:33;5.14;55.86
75457;SHT31;64036;48.266;14.192;2023-02-28T16:41:09;4.92;56.28
75457;SHT31;64036;48.266;14.192;2023-02-28T16:44:35;4.88;56.59
75457;SHT31;64036;48.266;14.192;2023-02-28T17:02:01;4.75;57.37
75457;SHT31;64036;48.266;14.192;2023-02-28T17:04:59;4.72;57.15
75457;SHT31;64036;48.266;14.192;2023-02-28T17:07:46;4.69;57.08
75457;SHT31;64036;48.266;14.192;2023-02-28T17:10:20;4.68;56.90
75457;SHT31;64036;48.266;14.192;2023-02-28T17:12:58;4.66;57.22
75457;SHT31;64036;48.266;14.192;2023-02-28T17:15:44;4.64;57.23
75457;SHT31;64036;48.266;14.192;2023-02-28T17:18:22;4.63;57.07
75457;SHT31;64036;48.266;14.192;2023-02-28T17:20:51;4.61;57.19
75457;SHT31;64036;48.266;14.192;2023-02-28T17:23:21;4.61;57.60
75457;SHT31;64036;48.266;14.192;2023-02-28T17:26:00;4.58;57.68
75457;SHT31;64036;48.266;14.192;2023-02-28T17:28:36;4.56;57.52
75457;SHT31;64036;48.266;14.192;2023-02-28T17:31:02;4.54;57.27
75457;SHT31;64036;48.266;14.192;2023-02-28T17:33:32;4.52;57.26
75457;SHT31;64036;48.266;14.192;2023-02-28T17:36:23;4.51;57.63
75457;SHT31;64036;48.266;14.192;2023-02-28T17:38:52;4.49;57.62
75457;SHT31;64036;48.266;14.192;2023-02-28T17:41:20;4.48;57.43
75457;SHT31;64036;48.266;14.192;2023-02-28T17:44:07;4.46;57.76
75457;SHT31;64036;48.266;14.192;2023-02-28T17:49:19;4.43;57.57
75457;SHT31;64036;48.266;14.192;2023-02-28T17:52:12;4.41;57.08
75457;SHT31;64036;48.266;14.192;2023-02-28T18:00:43;4.37;56.88
75457;SHT31;64036;48.266;14.192;2023-02-28T18:03:30;4.37;57.52
75457;SHT31;64036;48.266;14.192;2023-02-28T18:05:57;4.36;57.22
75457;SHT31;64036;48.266;14.192;2023-02-28T18:08:23;4.34;57.00
75457;SHT31;64036;48.266;14.192;2023-02-28T18:11:18;4.32;57.43
75457;SHT31;64036;48.266;14.192;2023-02-28T18:13:47;4.32;57.71
75457;SHT31;64036;48.266;14.192;2023-02-28T18:16:19;4.30;57.70
75457;SHT31;64036;48.266;14.192;2023-02-28T18:18:54;4.30;57.36
75457;SHT31;64036;48.266;14.192;2023-02-28T18:21:22;4.29;57.20
75457;SHT31;64036;48.266;14.192;2023-02-28T18:23:48;4.28;57.77
75457;SHT31;64036;48.266;14.192;2023-02-28T18:26:19;4.27;57.67
75457;SHT31;64036;48.266;14.192;2023-02-28T18:28:48;4.25;57.84
75457;SHT31;64036;48.266;14.192;2023-02-28T18:31:15;4.23;57.40
75457;SHT31;64036;48.266;14.192;2023-02-28T18:33:44;4.21;57.47
75457;SHT31;64036;48.266;14.192;2023-02-28T18:36:18;4.21;57.75
75457;SHT31;64036;48.266;14.192;2023-02-28T18:38:46;4.18;57.88
75457;SHT31;64036;48.266;14.192;2023-02-28T18:41:19;4.18;57.74
75457;SHT31;64036;48.266;14.192;2023-02-28T18:43:46;4.17;57.73
75457;SHT31;64036;48.266;14.192;2023-02-28T18:46:14;4.15;57.96
75457;SHT31;64036;48.266;14.192;2023-02-28T18:48:42;4.12;57.59
75457;SHT31;64036;48.266;14.192;2023-02-28T18:51:18;4.11;57.17
75457;SHT31;64036;48.266;14.192;2023-02-28T18:53:52;4.09;57.48
75457;SHT31;64036;48.266;14.192;2023-02-28T18:56:18;4.08;57.61
75457;SHT31;64036;48.266;14.192;2023-02-28T18:58:53;4.07;57.54
75457;SHT31;64036;48.266;14.192;2023-02-28T19:01:28;4.06;57.40
75457;SHT31;64036;48.266;14.192;2023-02-28T19:04:06;4.05;57.33
75457;SHT31;64036;48.266;14.192;2023-02-28T19:06:41;4.03;57.11
75457;SHT31;64036;48.266;14.192;2023-02-28T19:09:08;4.03;57.36
75457;SHT31;64036;48.266;14.192;2023-02-28T19:11:36;4.01;57.63
75457;SHT31;64036;48.266;14.192;2023-02-28T19:14:03;3.99;57.47
75457;SHT31;64036;48.266;14.192;2023-02-28T19:16:29;3.97;57.27
75457;SHT31;64036;48.266;14.192;2023-02-28T19:18:57;3.97;57.58
75457;SHT31;64036;48.266;14.192;2023-02-28T19:21:25;3.94;57.73
75457;SHT31;64036;48.266;14.192;2023-02-28T19:23:57;3.91;57.81
75457;SHT31;64036;48.266;14.192;2023-02-28T19:26:23;3.90;57.88
75457;SHT31;64036;48.266;14.192;2023-02-28T19:29:03;3.88;57.68
75457;SHT31;64036;48.266;14.192;2023-02-28T19:31:29;3.86;57.60
75457;SHT31;64036;48.266;14.192;2023-02-28T19:34:01;3.85;57.73
75457;SHT31;64036;48.266;14.192;2023-02-28T19:36:30;3.81;57.61
75457;SHT31;64036;48.266;14.192;2023-02-28T19:38:58;3.80;57.57
75457;SHT31;64036;48.266;14.192;2023-02-28T19:41:27;3.78;57.60
75457;SHT31;64036;48.266;14.192;2023-02-28T19:43:53;3.76;57.84
75457;SHT31;64036;48.266;14.192;2023-02-28T19:46:21;3.74;58.12
75457;SHT31;64036;48.266;14.192;2023-02-28T19:48:47;3.67;58.19
75457;SHT31;64036;48.266;14.192;2023-02-28T19:51:16;3.61;58.25
75457;SHT31;64036;48.266;14.192;2023-02-28T19:53:42;3.60;58.44